<?xml version="1.0" encoding="UTF-8" standalone="no" ?>
<gpx xmlns="http://www.topografix.com/GPX/1/1" xmlns:xsi="http://www.w3.org/2001/XMLSchema-instance" xsi:schemaLocation="http://www.topografix.com/GPX/1/1 http://www.topografix.com/GPX/1/1/gpx.xsd" version="1.1" creator="VisuGPX - https://www.visugpx.com">
  <metadata>
    <name>Randonnée à Innimond par le Mollard de Don</name>
  </metadata>
  <trk>
    <name><![CDATA[Randonnée à Innimond par le Mollard de Don_1]]></name>
    <extensions>
      <line xmlns="http://www.topografix.com/GPX/gpx_style/0/2">
        <color>0000FF</color>
        <width>4</width>
      </line>
    </extensions>
    <trkseg>
      <trkpt lat="45.781" lon="5.57248">
        <ele>889</ele>
        <time>2021-06-28T16:41:45+02:00</time>
      </trkpt>
      <trkpt lat="45.78159" lon="5.57237">
        <ele>883</ele>
        <time>2021-06-28T16:41:50+02:00</time>
      </trkpt>
      <trkpt lat="45.78202" lon="5.57227">
        <ele>881</ele>
        <time>2021-06-28T16:41:55+02:00</time>
      </trkpt>
      <trkpt lat="45.78238" lon="5.57219">
        <ele>880</ele>
        <time>2021-06-28T16:42:00+02:00</time>
      </trkpt>
      <trkpt lat="45.78243" lon="5.57226">
        <ele>880</ele>
        <time>2021-06-28T16:42:05+02:00</time>
      </trkpt>
      <trkpt lat="45.78247" lon="5.57229">
        <ele>880</ele>
        <time>2021-06-28T16:42:10+02:00</time>
      </trkpt>
      <trkpt lat="45.7829" lon="5.57211">
        <ele>879</ele>
        <time>2021-06-28T16:42:15+02:00</time>
      </trkpt>
      <trkpt lat="45.78296" lon="5.57247">
        <ele>877</ele>
        <time>2021-06-28T16:42:20+02:00</time>
      </trkpt>
      <trkpt lat="45.7831" lon="5.57306">
        <ele>877</ele>
        <time>2021-06-28T16:42:25+02:00</time>
      </trkpt>
      <trkpt lat="45.78328" lon="5.57303">
        <ele>876</ele>
        <time>2021-06-28T16:42:30+02:00</time>
      </trkpt>
      <trkpt lat="45.78328" lon="5.57324">
        <ele>876</ele>
        <time>2021-06-28T16:42:35+02:00</time>
      </trkpt>
      <trkpt lat="45.78339" lon="5.57349">
        <ele>875</ele>
        <time>2021-06-28T16:42:40+02:00</time>
      </trkpt>
      <trkpt lat="45.78351" lon="5.57392">
        <ele>876</ele>
        <time>2021-06-28T16:42:45+02:00</time>
      </trkpt>
      <trkpt lat="45.78362" lon="5.57404">
        <ele>876</ele>
        <time>2021-06-28T16:42:50+02:00</time>
      </trkpt>
      <trkpt lat="45.78365" lon="5.57462">
        <ele>876</ele>
        <time>2021-06-28T16:42:55+02:00</time>
      </trkpt>
      <trkpt lat="45.78361" lon="5.57513">
        <ele>876</ele>
        <time>2021-06-28T16:43:00+02:00</time>
      </trkpt>
      <trkpt lat="45.78352" lon="5.57544">
        <ele>876</ele>
        <time>2021-06-28T16:43:05+02:00</time>
      </trkpt>
      <trkpt lat="45.78346" lon="5.57559">
        <ele>875</ele>
        <time>2021-06-28T16:43:10+02:00</time>
      </trkpt>
      <trkpt lat="45.78336" lon="5.5761">
        <ele>875</ele>
        <time>2021-06-28T16:43:15+02:00</time>
      </trkpt>
      <trkpt lat="45.78321" lon="5.577">
        <ele>876</ele>
        <time>2021-06-28T16:43:20+02:00</time>
      </trkpt>
      <trkpt lat="45.78323" lon="5.57713">
        <ele>877</ele>
        <time>2021-06-28T16:43:25+02:00</time>
      </trkpt>
      <trkpt lat="45.7833" lon="5.57718">
        <ele>877</ele>
        <time>2021-06-28T16:43:30+02:00</time>
      </trkpt>
      <trkpt lat="45.78357" lon="5.57723">
        <ele>878</ele>
        <time>2021-06-28T16:43:35+02:00</time>
      </trkpt>
      <trkpt lat="45.78362" lon="5.57728">
        <ele>878</ele>
        <time>2021-06-28T16:43:40+02:00</time>
      </trkpt>
      <trkpt lat="45.78363" lon="5.57738">
        <ele>878</ele>
        <time>2021-06-28T16:43:45+02:00</time>
      </trkpt>
      <trkpt lat="45.78358" lon="5.57763">
        <ele>878</ele>
        <time>2021-06-28T16:43:50+02:00</time>
      </trkpt>
      <trkpt lat="45.78349" lon="5.57821">
        <ele>879</ele>
        <time>2021-06-28T16:43:55+02:00</time>
      </trkpt>
      <trkpt lat="45.78347" lon="5.5786">
        <ele>879</ele>
        <time>2021-06-28T16:44:00+02:00</time>
      </trkpt>
      <trkpt lat="45.78353" lon="5.57874">
        <ele>880</ele>
        <time>2021-06-28T16:44:05+02:00</time>
      </trkpt>
      <trkpt lat="45.78355" lon="5.5788">
        <ele>880</ele>
        <time>2021-06-28T16:44:10+02:00</time>
      </trkpt>
      <trkpt lat="45.78356" lon="5.57898">
        <ele>881</ele>
        <time>2021-06-28T16:44:15+02:00</time>
      </trkpt>
      <trkpt lat="45.78354" lon="5.57959">
        <ele>885</ele>
        <time>2021-06-28T16:44:20+02:00</time>
      </trkpt>
      <trkpt lat="45.78355" lon="5.58005">
        <ele>889</ele>
        <time>2021-06-28T16:44:25+02:00</time>
      </trkpt>
      <trkpt lat="45.78356" lon="5.58029">
        <ele>890</ele>
        <time>2021-06-28T16:44:30+02:00</time>
      </trkpt>
      <trkpt lat="45.7835" lon="5.5814">
        <ele>894</ele>
        <time>2021-06-28T16:44:35+02:00</time>
      </trkpt>
      <trkpt lat="45.78334" lon="5.5823">
        <ele>897</ele>
        <time>2021-06-28T16:44:40+02:00</time>
      </trkpt>
      <trkpt lat="45.78326" lon="5.58288">
        <ele>899</ele>
        <time>2021-06-28T16:44:45+02:00</time>
      </trkpt>
      <trkpt lat="45.78326" lon="5.58296">
        <ele>899</ele>
        <time>2021-06-28T16:44:50+02:00</time>
      </trkpt>
      <trkpt lat="45.78332" lon="5.58298">
        <ele>900</ele>
        <time>2021-06-28T16:44:55+02:00</time>
      </trkpt>
      <trkpt lat="45.78343" lon="5.58299">
        <ele>902</ele>
        <time>2021-06-28T16:45:00+02:00</time>
      </trkpt>
      <trkpt lat="45.78346" lon="5.58307">
        <ele>902</ele>
        <time>2021-06-28T16:45:05+02:00</time>
      </trkpt>
      <trkpt lat="45.78346" lon="5.58323">
        <ele>904</ele>
        <time>2021-06-28T16:45:10+02:00</time>
      </trkpt>
      <trkpt lat="45.78339" lon="5.58361">
        <ele>905</ele>
        <time>2021-06-28T16:45:15+02:00</time>
      </trkpt>
      <trkpt lat="45.78336" lon="5.58375">
        <ele>905</ele>
        <time>2021-06-28T16:45:20+02:00</time>
      </trkpt>
      <trkpt lat="45.78337" lon="5.58386">
        <ele>906</ele>
        <time>2021-06-28T16:45:25+02:00</time>
      </trkpt>
      <trkpt lat="45.78356" lon="5.58432">
        <ele>912</ele>
        <time>2021-06-28T16:45:30+02:00</time>
      </trkpt>
      <trkpt lat="45.78331" lon="5.58513">
        <ele>914</ele>
        <time>2021-06-28T16:45:35+02:00</time>
      </trkpt>
      <trkpt lat="45.78321" lon="5.58529">
        <ele>914</ele>
        <time>2021-06-28T16:45:40+02:00</time>
      </trkpt>
      <trkpt lat="45.783" lon="5.58563">
        <ele>913</ele>
        <time>2021-06-28T16:45:45+02:00</time>
      </trkpt>
      <trkpt lat="45.78285" lon="5.58574">
        <ele>911</ele>
        <time>2021-06-28T16:45:50+02:00</time>
      </trkpt>
      <trkpt lat="45.78283" lon="5.58607">
        <ele>914</ele>
        <time>2021-06-28T16:45:55+02:00</time>
      </trkpt>
      <trkpt lat="45.78271" lon="5.58662">
        <ele>916</ele>
        <time>2021-06-28T16:46:00+02:00</time>
      </trkpt>
      <trkpt lat="45.78269" lon="5.58673">
        <ele>917</ele>
        <time>2021-06-28T16:46:05+02:00</time>
      </trkpt>
      <trkpt lat="45.78263" lon="5.58689">
        <ele>918</ele>
        <time>2021-06-28T16:46:10+02:00</time>
      </trkpt>
      <trkpt lat="45.78253" lon="5.58707">
        <ele>918</ele>
        <time>2021-06-28T16:46:15+02:00</time>
      </trkpt>
      <trkpt lat="45.78235" lon="5.58731">
        <ele>919</ele>
        <time>2021-06-28T16:46:20+02:00</time>
      </trkpt>
      <trkpt lat="45.78223" lon="5.58744">
        <ele>919</ele>
        <time>2021-06-28T16:46:25+02:00</time>
      </trkpt>
      <trkpt lat="45.78204" lon="5.58768">
        <ele>921</ele>
        <time>2021-06-28T16:46:30+02:00</time>
      </trkpt>
      <trkpt lat="45.7819" lon="5.58794">
        <ele>923</ele>
        <time>2021-06-28T16:46:35+02:00</time>
      </trkpt>
      <trkpt lat="45.78183" lon="5.58802">
        <ele>923</ele>
        <time>2021-06-28T16:46:40+02:00</time>
      </trkpt>
      <trkpt lat="45.78174" lon="5.5881">
        <ele>923</ele>
        <time>2021-06-28T16:46:45+02:00</time>
      </trkpt>
      <trkpt lat="45.78164" lon="5.58816">
        <ele>923</ele>
        <time>2021-06-28T16:46:50+02:00</time>
      </trkpt>
      <trkpt lat="45.78152" lon="5.58819">
        <ele>923</ele>
        <time>2021-06-28T16:46:55+02:00</time>
      </trkpt>
      <trkpt lat="45.78133" lon="5.58833">
        <ele>923</ele>
        <time>2021-06-28T16:47:00+02:00</time>
      </trkpt>
      <trkpt lat="45.78117" lon="5.58843">
        <ele>923</ele>
        <time>2021-06-28T16:47:05+02:00</time>
      </trkpt>
      <trkpt lat="45.78084" lon="5.58859">
        <ele>926</ele>
        <time>2021-06-28T16:47:10+02:00</time>
      </trkpt>
      <trkpt lat="45.78032" lon="5.58938">
        <ele>925</ele>
        <time>2021-06-28T16:47:15+02:00</time>
      </trkpt>
      <trkpt lat="45.77993" lon="5.59033">
        <ele>922</ele>
        <time>2021-06-28T16:47:20+02:00</time>
      </trkpt>
      <trkpt lat="45.77991" lon="5.59095">
        <ele>934</ele>
        <time>2021-06-28T16:47:25+02:00</time>
      </trkpt>
      <trkpt lat="45.78016" lon="5.59156">
        <ele>942</ele>
        <time>2021-06-28T16:47:30+02:00</time>
      </trkpt>
      <trkpt lat="45.78014" lon="5.59198">
        <ele>943</ele>
        <time>2021-06-28T16:47:35+02:00</time>
      </trkpt>
      <trkpt lat="45.78004" lon="5.59233">
        <ele>944</ele>
        <time>2021-06-28T16:47:40+02:00</time>
      </trkpt>
      <trkpt lat="45.78003" lon="5.59325">
        <ele>951</ele>
        <time>2021-06-28T16:47:45+02:00</time>
      </trkpt>
      <trkpt lat="45.78025" lon="5.59345">
        <ele>954</ele>
        <time>2021-06-28T16:47:50+02:00</time>
      </trkpt>
      <trkpt lat="45.78057" lon="5.59351">
        <ele>966</ele>
        <time>2021-06-28T16:47:55+02:00</time>
      </trkpt>
      <trkpt lat="45.78112" lon="5.59363">
        <ele>985</ele>
        <time>2021-06-28T16:48:00+02:00</time>
      </trkpt>
      <trkpt lat="45.78163" lon="5.59366">
        <ele>977</ele>
        <time>2021-06-28T16:48:05+02:00</time>
      </trkpt>
      <trkpt lat="45.78191" lon="5.59365">
        <ele>979</ele>
        <time>2021-06-28T16:48:10+02:00</time>
      </trkpt>
      <trkpt lat="45.78219" lon="5.59365">
        <ele>982</ele>
        <time>2021-06-28T16:48:15+02:00</time>
      </trkpt>
      <trkpt lat="45.78242" lon="5.59345">
        <ele>994</ele>
        <time>2021-06-28T16:48:20+02:00</time>
      </trkpt>
      <trkpt lat="45.78255" lon="5.5934">
        <ele>997</ele>
        <time>2021-06-28T16:48:25+02:00</time>
      </trkpt>
      <trkpt lat="45.78265" lon="5.59329">
        <ele>1001</ele>
        <time>2021-06-28T16:48:30+02:00</time>
      </trkpt>
      <trkpt lat="45.78278" lon="5.59322">
        <ele>1002</ele>
        <time>2021-06-28T16:48:35+02:00</time>
      </trkpt>
      <trkpt lat="45.78305" lon="5.5932">
        <ele>1003</ele>
        <time>2021-06-28T16:48:40+02:00</time>
      </trkpt>
      <trkpt lat="45.78346" lon="5.59287">
        <ele>1007</ele>
        <time>2021-06-28T16:48:45+02:00</time>
      </trkpt>
      <trkpt lat="45.78387" lon="5.59258">
        <ele>1009</ele>
        <time>2021-06-28T16:48:50+02:00</time>
      </trkpt>
      <trkpt lat="45.78422" lon="5.5923">
        <ele>1009</ele>
        <time>2021-06-28T16:48:55+02:00</time>
      </trkpt>
      <trkpt lat="45.78452" lon="5.59208">
        <ele>1012</ele>
        <time>2021-06-28T16:49:00+02:00</time>
      </trkpt>
      <trkpt lat="45.78481" lon="5.59179">
        <ele>1018</ele>
        <time>2021-06-28T16:49:05+02:00</time>
      </trkpt>
      <trkpt lat="45.78522" lon="5.59154">
        <ele>1019</ele>
        <time>2021-06-28T16:49:10+02:00</time>
      </trkpt>
      <trkpt lat="45.78566" lon="5.59124">
        <ele>1025</ele>
        <time>2021-06-28T16:49:15+02:00</time>
      </trkpt>
      <trkpt lat="45.78597" lon="5.59103">
        <ele>1032</ele>
        <time>2021-06-28T16:49:20+02:00</time>
      </trkpt>
      <trkpt lat="45.78619" lon="5.59082">
        <ele>1041</ele>
        <time>2021-06-28T16:49:25+02:00</time>
      </trkpt>
      <trkpt lat="45.78639" lon="5.59068">
        <ele>1047</ele>
        <time>2021-06-28T16:49:30+02:00</time>
      </trkpt>
      <trkpt lat="45.78658" lon="5.5906">
        <ele>1051</ele>
        <time>2021-06-28T16:49:35+02:00</time>
      </trkpt>
      <trkpt lat="45.78671" lon="5.59055">
        <ele>1054</ele>
        <time>2021-06-28T16:49:40+02:00</time>
      </trkpt>
      <trkpt lat="45.78686" lon="5.59041">
        <ele>1060</ele>
        <time>2021-06-28T16:49:45+02:00</time>
      </trkpt>
      <trkpt lat="45.7871" lon="5.59029">
        <ele>1068</ele>
        <time>2021-06-28T16:49:50+02:00</time>
      </trkpt>
      <trkpt lat="45.78766" lon="5.59005">
        <ele>1079</ele>
        <time>2021-06-28T16:49:55+02:00</time>
      </trkpt>
      <trkpt lat="45.78796" lon="5.58998">
        <ele>1082</ele>
        <time>2021-06-28T16:50:00+02:00</time>
      </trkpt>
      <trkpt lat="45.78821" lon="5.58983">
        <ele>1089</ele>
        <time>2021-06-28T16:50:05+02:00</time>
      </trkpt>
      <trkpt lat="45.78841" lon="5.58978">
        <ele>1092</ele>
        <time>2021-06-28T16:50:10+02:00</time>
      </trkpt>
      <trkpt lat="45.78921" lon="5.58923">
        <ele>1115</ele>
        <time>2021-06-28T16:50:15+02:00</time>
      </trkpt>
      <trkpt lat="45.78949" lon="5.58903">
        <ele>1120</ele>
        <time>2021-06-28T16:50:20+02:00</time>
      </trkpt>
      <trkpt lat="45.78981" lon="5.58883">
        <ele>1124</ele>
        <time>2021-06-28T16:50:25+02:00</time>
      </trkpt>
      <trkpt lat="45.79019" lon="5.58852">
        <ele>1128</ele>
        <time>2021-06-28T16:50:30+02:00</time>
      </trkpt>
      <trkpt lat="45.79072" lon="5.58798">
        <ele>1130</ele>
        <time>2021-06-28T16:50:35+02:00</time>
      </trkpt>
      <trkpt lat="45.79098" lon="5.58765">
        <ele>1130</ele>
        <time>2021-06-28T16:50:40+02:00</time>
      </trkpt>
      <trkpt lat="45.79112" lon="5.58752">
        <ele>1130</ele>
        <time>2021-06-28T16:50:45+02:00</time>
      </trkpt>
      <trkpt lat="45.79175" lon="5.58681">
        <ele>1130</ele>
        <time>2021-06-28T16:50:50+02:00</time>
      </trkpt>
      <trkpt lat="45.79222" lon="5.58624">
        <ele>1130</ele>
        <time>2021-06-28T16:50:55+02:00</time>
      </trkpt>
      <trkpt lat="45.79269" lon="5.58562">
        <ele>1130</ele>
        <time>2021-06-28T16:51:00+02:00</time>
      </trkpt>
      <trkpt lat="45.79314" lon="5.58503">
        <ele>1130</ele>
        <time>2021-06-28T16:51:05+02:00</time>
      </trkpt>
      <trkpt lat="45.79356" lon="5.58452">
        <ele>1132</ele>
        <time>2021-06-28T16:51:10+02:00</time>
      </trkpt>
      <trkpt lat="45.79425" lon="5.58375">
        <ele>1139</ele>
        <time>2021-06-28T16:51:15+02:00</time>
      </trkpt>
      <trkpt lat="45.79479" lon="5.58309">
        <ele>1140</ele>
        <time>2021-06-28T16:51:20+02:00</time>
      </trkpt>
      <trkpt lat="45.7954" lon="5.58225">
        <ele>1140</ele>
        <time>2021-06-28T16:51:25+02:00</time>
      </trkpt>
      <trkpt lat="45.79591" lon="5.58148">
        <ele>1140</ele>
        <time>2021-06-28T16:51:30+02:00</time>
      </trkpt>
      <trkpt lat="45.79612" lon="5.58121">
        <ele>1140</ele>
        <time>2021-06-28T16:51:35+02:00</time>
      </trkpt>
      <trkpt lat="45.79626" lon="5.58103">
        <ele>1140</ele>
        <time>2021-06-28T16:51:40+02:00</time>
      </trkpt>
      <trkpt lat="45.79639" lon="5.581">
        <ele>1140</ele>
        <time>2021-06-28T16:51:45+02:00</time>
      </trkpt>
      <trkpt lat="45.7965" lon="5.58094">
        <ele>1139</ele>
        <time>2021-06-28T16:51:50+02:00</time>
      </trkpt>
      <trkpt lat="45.79665" lon="5.58076">
        <ele>1140</ele>
        <time>2021-06-28T16:51:55+02:00</time>
      </trkpt>
      <trkpt lat="45.79673" lon="5.58059">
        <ele>1140</ele>
        <time>2021-06-28T16:52:00+02:00</time>
      </trkpt>
      <trkpt lat="45.7968" lon="5.58046">
        <ele>1140</ele>
        <time>2021-06-28T16:52:05+02:00</time>
      </trkpt>
      <trkpt lat="45.79697" lon="5.58024">
        <ele>1140</ele>
        <time>2021-06-28T16:52:10+02:00</time>
      </trkpt>
      <trkpt lat="45.79725" lon="5.57999">
        <ele>1140</ele>
        <time>2021-06-28T16:52:15+02:00</time>
      </trkpt>
      <trkpt lat="45.79753" lon="5.5797">
        <ele>1140</ele>
        <time>2021-06-28T16:52:20+02:00</time>
      </trkpt>
      <trkpt lat="45.79783" lon="5.57929">
        <ele>1140</ele>
        <time>2021-06-28T16:52:25+02:00</time>
      </trkpt>
      <trkpt lat="45.79831" lon="5.57881">
        <ele>1140</ele>
        <time>2021-06-28T16:52:30+02:00</time>
      </trkpt>
      <trkpt lat="45.79864" lon="5.57846">
        <ele>1140</ele>
        <time>2021-06-28T16:52:35+02:00</time>
      </trkpt>
      <trkpt lat="45.79906" lon="5.57802">
        <ele>1140</ele>
        <time>2021-06-28T16:52:40+02:00</time>
      </trkpt>
      <trkpt lat="45.79939" lon="5.57765">
        <ele>1143</ele>
        <time>2021-06-28T16:52:45+02:00</time>
      </trkpt>
      <trkpt lat="45.79962" lon="5.57741">
        <ele>1147</ele>
        <time>2021-06-28T16:52:50+02:00</time>
      </trkpt>
      <trkpt lat="45.79982" lon="5.57718">
        <ele>1149</ele>
        <time>2021-06-28T16:52:55+02:00</time>
      </trkpt>
      <trkpt lat="45.79994" lon="5.57709">
        <ele>1148</ele>
        <time>2021-06-28T16:53:00+02:00</time>
      </trkpt>
      <trkpt lat="45.80009" lon="5.57701">
        <ele>1147</ele>
        <time>2021-06-28T16:53:05+02:00</time>
      </trkpt>
      <trkpt lat="45.80023" lon="5.57679">
        <ele>1147</ele>
        <time>2021-06-28T16:53:10+02:00</time>
      </trkpt>
      <trkpt lat="45.80032" lon="5.57679">
        <ele>1146</ele>
        <time>2021-06-28T16:53:15+02:00</time>
      </trkpt>
      <trkpt lat="45.80044" lon="5.57678">
        <ele>1144</ele>
        <time>2021-06-28T16:53:20+02:00</time>
      </trkpt>
      <trkpt lat="45.80056" lon="5.5767">
        <ele>1144</ele>
        <time>2021-06-28T16:53:25+02:00</time>
      </trkpt>
      <trkpt lat="45.80082" lon="5.57638">
        <ele>1148</ele>
        <time>2021-06-28T16:53:30+02:00</time>
      </trkpt>
      <trkpt lat="45.80099" lon="5.57619">
        <ele>1149</ele>
        <time>2021-06-28T16:53:35+02:00</time>
      </trkpt>
      <trkpt lat="45.80119" lon="5.57592">
        <ele>1150</ele>
        <time>2021-06-28T16:53:40+02:00</time>
      </trkpt>
      <trkpt lat="45.80131" lon="5.57568">
        <ele>1150</ele>
        <time>2021-06-28T16:53:45+02:00</time>
      </trkpt>
      <trkpt lat="45.80142" lon="5.57559">
        <ele>1150</ele>
        <time>2021-06-28T16:53:50+02:00</time>
      </trkpt>
      <trkpt lat="45.80151" lon="5.57557">
        <ele>1150</ele>
        <time>2021-06-28T16:53:55+02:00</time>
      </trkpt>
      <trkpt lat="45.80162" lon="5.57545">
        <ele>1150</ele>
        <time>2021-06-28T16:54:00+02:00</time>
      </trkpt>
      <trkpt lat="45.80186" lon="5.57511">
        <ele>1150</ele>
        <time>2021-06-28T16:54:05+02:00</time>
      </trkpt>
      <trkpt lat="45.80227" lon="5.5746">
        <ele>1148</ele>
        <time>2021-06-28T16:54:10+02:00</time>
      </trkpt>
      <trkpt lat="45.80242" lon="5.57451">
        <ele>1145</ele>
        <time>2021-06-28T16:54:15+02:00</time>
      </trkpt>
      <trkpt lat="45.80255" lon="5.57432">
        <ele>1143</ele>
        <time>2021-06-28T16:54:20+02:00</time>
      </trkpt>
      <trkpt lat="45.80302" lon="5.57365">
        <ele>1139</ele>
        <time>2021-06-28T16:54:25+02:00</time>
      </trkpt>
      <trkpt lat="45.8033" lon="5.57328">
        <ele>1134</ele>
        <time>2021-06-28T16:54:30+02:00</time>
      </trkpt>
      <trkpt lat="45.80369" lon="5.57289">
        <ele>1127</ele>
        <time>2021-06-28T16:54:35+02:00</time>
      </trkpt>
      <trkpt lat="45.80397" lon="5.57264">
        <ele>1120</ele>
        <time>2021-06-28T16:54:40+02:00</time>
      </trkpt>
      <trkpt lat="45.80417" lon="5.57252">
        <ele>1113</ele>
        <time>2021-06-28T16:54:45+02:00</time>
      </trkpt>
      <trkpt lat="45.80438" lon="5.5724">
        <ele>1105</ele>
        <time>2021-06-28T16:54:50+02:00</time>
      </trkpt>
      <trkpt lat="45.80447" lon="5.57232">
        <ele>1101</ele>
        <time>2021-06-28T16:54:55+02:00</time>
      </trkpt>
      <trkpt lat="45.80469" lon="5.57208">
        <ele>1096</ele>
        <time>2021-06-28T16:55:00+02:00</time>
      </trkpt>
      <trkpt lat="45.80491" lon="5.57208">
        <ele>1097</ele>
        <time>2021-06-28T16:55:05+02:00</time>
      </trkpt>
      <trkpt lat="45.80527" lon="5.57206">
        <ele>1096</ele>
        <time>2021-06-28T16:55:10+02:00</time>
      </trkpt>
      <trkpt lat="45.80559" lon="5.57182">
        <ele>1098</ele>
        <time>2021-06-28T16:55:15+02:00</time>
      </trkpt>
      <trkpt lat="45.80578" lon="5.57176">
        <ele>1097</ele>
        <time>2021-06-28T16:55:20+02:00</time>
      </trkpt>
      <trkpt lat="45.80591" lon="5.57178">
        <ele>1095</ele>
        <time>2021-06-28T16:55:25+02:00</time>
      </trkpt>
      <trkpt lat="45.80618" lon="5.57183">
        <ele>1095</ele>
        <time>2021-06-28T16:55:30+02:00</time>
      </trkpt>
      <trkpt lat="45.80653" lon="5.57198">
        <ele>1094</ele>
        <time>2021-06-28T16:55:35+02:00</time>
      </trkpt>
      <trkpt lat="45.80677" lon="5.5721">
        <ele>1094</ele>
        <time>2021-06-28T16:55:40+02:00</time>
      </trkpt>
      <trkpt lat="45.80695" lon="5.57223">
        <ele>1094</ele>
        <time>2021-06-28T16:55:45+02:00</time>
      </trkpt>
      <trkpt lat="45.80715" lon="5.57239">
        <ele>1093</ele>
        <time>2021-06-28T16:55:50+02:00</time>
      </trkpt>
      <trkpt lat="45.80728" lon="5.57249">
        <ele>1092</ele>
        <time>2021-06-28T16:55:55+02:00</time>
      </trkpt>
      <trkpt lat="45.80749" lon="5.57266">
        <ele>1091</ele>
        <time>2021-06-28T16:56:00+02:00</time>
      </trkpt>
      <trkpt lat="45.80762" lon="5.57276">
        <ele>1090</ele>
        <time>2021-06-28T16:56:05+02:00</time>
      </trkpt>
      <trkpt lat="45.8077" lon="5.57282">
        <ele>1090</ele>
        <time>2021-06-28T16:56:10+02:00</time>
      </trkpt>
      <trkpt lat="45.80782" lon="5.57291">
        <ele>1090</ele>
        <time>2021-06-28T16:56:15+02:00</time>
      </trkpt>
      <trkpt lat="45.80792" lon="5.57297">
        <ele>1090</ele>
        <time>2021-06-28T16:56:20+02:00</time>
      </trkpt>
      <trkpt lat="45.80797" lon="5.57301">
        <ele>1090</ele>
        <time>2021-06-28T16:56:25+02:00</time>
      </trkpt>
      <trkpt lat="45.80803" lon="5.57302">
        <ele>1090</ele>
        <time>2021-06-28T16:56:30+02:00</time>
      </trkpt>
      <trkpt lat="45.80811" lon="5.57304">
        <ele>1090</ele>
        <time>2021-06-28T16:56:35+02:00</time>
      </trkpt>
      <trkpt lat="45.8082" lon="5.57303">
        <ele>1090</ele>
        <time>2021-06-28T12:58:46+02:00</time>
      </trkpt>
      <trkpt lat="45.80835" lon="5.57307">
        <ele>1090</ele>
        <time>2021-06-28T12:58:51+02:00</time>
      </trkpt>
      <trkpt lat="45.80844" lon="5.57312">
        <ele>1090</ele>
        <time>2021-06-28T12:58:56+02:00</time>
      </trkpt>
      <trkpt lat="45.80858" lon="5.57323">
        <ele>1089</ele>
        <time>2021-06-28T16:56:55+02:00</time>
      </trkpt>
      <trkpt lat="45.80871" lon="5.57336">
        <ele>1087</ele>
        <time>2021-06-28T12:59:01+02:00</time>
      </trkpt>
      <trkpt lat="45.80895" lon="5.57355">
        <ele>1086</ele>
        <time>2021-06-28T12:59:06+02:00</time>
      </trkpt>
      <trkpt lat="45.80908" lon="5.57362">
        <ele>1083</ele>
        <time>2021-06-28T12:59:11+02:00</time>
      </trkpt>
      <trkpt lat="45.80942" lon="5.57364">
        <ele>1079</ele>
        <time>2021-06-28T12:59:16+02:00</time>
      </trkpt>
      <trkpt lat="45.80965" lon="5.57334">
        <ele>1079</ele>
        <time>2021-06-28T12:59:21+02:00</time>
      </trkpt>
      <trkpt lat="45.80974" lon="5.57293">
        <ele>1076</ele>
        <time>2021-06-28T12:59:26+02:00</time>
      </trkpt>
      <trkpt lat="45.80975" lon="5.57282">
        <ele>1074</ele>
        <time>2021-06-28T12:59:31+02:00</time>
      </trkpt>
      <trkpt lat="45.80984" lon="5.57267">
        <ele>1073</ele>
        <time>2021-06-28T12:59:36+02:00</time>
      </trkpt>
      <trkpt lat="45.80996" lon="5.57246">
        <ele>1071</ele>
        <time>2021-06-28T12:59:41+02:00</time>
      </trkpt>
      <trkpt lat="45.81037" lon="5.57227">
        <ele>1069</ele>
        <time>2021-06-28T12:59:46+02:00</time>
      </trkpt>
      <trkpt lat="45.81114" lon="5.57171">
        <ele>1062</ele>
        <time>2021-06-28T12:59:51+02:00</time>
      </trkpt>
      <trkpt lat="45.81152" lon="5.57151">
        <ele>1061</ele>
        <time>2021-06-28T12:59:56+02:00</time>
      </trkpt>
      <trkpt lat="45.81215" lon="5.57091">
        <ele>1058</ele>
        <time>2021-06-28T13:00:01+02:00</time>
      </trkpt>
      <trkpt lat="45.81233" lon="5.57059">
        <ele>1054</ele>
        <time>2021-06-28T13:00:06+02:00</time>
      </trkpt>
      <trkpt lat="45.81247" lon="5.57031">
        <ele>1051</ele>
        <time>2021-06-28T13:00:11+02:00</time>
      </trkpt>
      <trkpt lat="45.81261" lon="5.57021">
        <ele>1049</ele>
        <time>2021-06-28T13:00:16+02:00</time>
      </trkpt>
      <trkpt lat="45.81279" lon="5.57018">
        <ele>1048</ele>
        <time>2021-06-28T13:00:21+02:00</time>
      </trkpt>
      <trkpt lat="45.81285" lon="5.57003">
        <ele>1046</ele>
        <time>2021-06-28T13:00:26+02:00</time>
      </trkpt>
      <trkpt lat="45.81285" lon="5.56984">
        <ele>1045</ele>
        <time>2021-06-28T13:00:31+02:00</time>
      </trkpt>
      <trkpt lat="45.81288" lon="5.56963">
        <ele>1044</ele>
        <time>2021-06-28T13:00:36+02:00</time>
      </trkpt>
      <trkpt lat="45.81288" lon="5.56941">
        <ele>1044</ele>
        <time>2021-06-28T13:00:41+02:00</time>
      </trkpt>
      <trkpt lat="45.81285" lon="5.56915">
        <ele>1043</ele>
        <time>2021-06-28T13:00:46+02:00</time>
      </trkpt>
      <trkpt lat="45.81283" lon="5.56881">
        <ele>1042</ele>
        <time>2021-06-28T13:00:51+02:00</time>
      </trkpt>
      <trkpt lat="45.8128" lon="5.56845">
        <ele>1041</ele>
        <time>2021-06-28T13:00:56+02:00</time>
      </trkpt>
      <trkpt lat="45.81297" lon="5.56806">
        <ele>1033</ele>
        <time>2021-06-28T13:01:01+02:00</time>
      </trkpt>
      <trkpt lat="45.81301" lon="5.56784">
        <ele>1029</ele>
        <time>2021-06-28T13:01:06+02:00</time>
      </trkpt>
      <trkpt lat="45.81288" lon="5.56754">
        <ele>1034</ele>
        <time>2021-06-28T13:01:11+02:00</time>
      </trkpt>
      <trkpt lat="45.81282" lon="5.56705">
        <ele>1035</ele>
        <time>2021-06-28T13:01:16+02:00</time>
      </trkpt>
      <trkpt lat="45.81277" lon="5.56681">
        <ele>1035</ele>
        <time>2021-06-28T13:01:21+02:00</time>
      </trkpt>
      <trkpt lat="45.8128" lon="5.56641">
        <ele>1030</ele>
        <time>2021-06-28T13:01:26+02:00</time>
      </trkpt>
      <trkpt lat="45.8127" lon="5.56583">
        <ele>1028</ele>
        <time>2021-06-28T13:01:31+02:00</time>
      </trkpt>
      <trkpt lat="45.81264" lon="5.56548">
        <ele>1029</ele>
        <time>2021-06-28T13:01:36+02:00</time>
      </trkpt>
      <trkpt lat="45.81264" lon="5.56523">
        <ele>1026</ele>
        <time>2021-06-28T13:01:41+02:00</time>
      </trkpt>
      <trkpt lat="45.8127" lon="5.56499">
        <ele>1018</ele>
        <time>2021-06-28T13:01:46+02:00</time>
      </trkpt>
      <trkpt lat="45.81273" lon="5.56495">
        <ele>1015</ele>
        <time>2021-06-28T13:01:51+02:00</time>
      </trkpt>
      <trkpt lat="45.81274" lon="5.56473">
        <ele>1012</ele>
        <time>2021-06-28T13:01:56+02:00</time>
      </trkpt>
      <trkpt lat="45.81274" lon="5.56465">
        <ele>1012</ele>
        <time>2021-06-28T13:02:01+02:00</time>
      </trkpt>
      <trkpt lat="45.81274" lon="5.56456">
        <ele>1011</ele>
        <time>2021-06-28T13:02:06+02:00</time>
      </trkpt>
      <trkpt lat="45.81273" lon="5.56445">
        <ele>1012</ele>
        <time>2021-06-28T13:02:11+02:00</time>
      </trkpt>
      <trkpt lat="45.81271" lon="5.56426">
        <ele>1012</ele>
        <time>2021-06-28T13:02:16+02:00</time>
      </trkpt>
      <trkpt lat="45.81265" lon="5.56411">
        <ele>1015</ele>
        <time>2021-06-28T13:02:21+02:00</time>
      </trkpt>
      <trkpt lat="45.81259" lon="5.56392">
        <ele>1015</ele>
        <time>2021-06-28T13:02:26+02:00</time>
      </trkpt>
      <trkpt lat="45.81256" lon="5.56381">
        <ele>1013</ele>
        <time>2021-06-28T13:02:31+02:00</time>
      </trkpt>
      <trkpt lat="45.81255" lon="5.56368">
        <ele>1009</ele>
        <time>2021-06-28T13:02:36+02:00</time>
      </trkpt>
      <trkpt lat="45.81255" lon="5.56345">
        <ele>999</ele>
        <time>2021-06-28T13:02:41+02:00</time>
      </trkpt>
      <trkpt lat="45.81253" lon="5.5633">
        <ele>994</ele>
        <time>2021-06-28T13:02:46+02:00</time>
      </trkpt>
      <trkpt lat="45.81259" lon="5.5627">
        <ele>978</ele>
        <time>2021-06-28T13:02:51+02:00</time>
      </trkpt>
      <trkpt lat="45.81256" lon="5.56231">
        <ele>968</ele>
        <time>2021-06-28T13:02:56+02:00</time>
      </trkpt>
      <trkpt lat="45.81259" lon="5.56197">
        <ele>961</ele>
        <time>2021-06-28T13:03:01+02:00</time>
      </trkpt>
      <trkpt lat="45.81263" lon="5.56193">
        <ele>961</ele>
        <time>2021-06-28T13:03:06+02:00</time>
      </trkpt>
      <trkpt lat="45.81273" lon="5.56202">
        <ele>964</ele>
        <time>2021-06-28T17:01:10+02:00</time>
      </trkpt>
      <trkpt lat="45.81279" lon="5.56199">
        <ele>964</ele>
        <time>2021-06-28T13:03:11+02:00</time>
      </trkpt>
      <trkpt lat="45.81289" lon="5.56188">
        <ele>963</ele>
        <time>2021-06-28T13:03:16+02:00</time>
      </trkpt>
      <trkpt lat="45.81301" lon="5.56172">
        <ele>962</ele>
        <time>2021-06-28T13:03:21+02:00</time>
      </trkpt>
      <trkpt lat="45.81314" lon="5.56163">
        <ele>961</ele>
        <time>2021-06-28T13:03:26+02:00</time>
      </trkpt>
      <trkpt lat="45.81328" lon="5.56153">
        <ele>961</ele>
        <time>2021-06-28T13:03:31+02:00</time>
      </trkpt>
      <trkpt lat="45.81353" lon="5.56146">
        <ele>962</ele>
        <time>2021-06-28T17:01:40+02:00</time>
      </trkpt>
      <trkpt lat="45.81373" lon="5.56136">
        <ele>961</ele>
        <time>2021-06-28T13:03:36+02:00</time>
      </trkpt>
      <trkpt lat="45.8139" lon="5.5613">
        <ele>961</ele>
        <time>2021-06-28T17:01:50+02:00</time>
      </trkpt>
      <trkpt lat="45.81397" lon="5.56128">
        <ele>961</ele>
        <time>2021-06-28T13:03:41+02:00</time>
      </trkpt>
      <trkpt lat="45.81414" lon="5.56124">
        <ele>961</ele>
        <time>2021-06-28T17:02:00+02:00</time>
      </trkpt>
      <trkpt lat="45.8143" lon="5.56126">
        <ele>962</ele>
        <time>2021-06-28T17:02:05+02:00</time>
      </trkpt>
      <trkpt lat="45.81447" lon="5.56124">
        <ele>962</ele>
        <time>2021-06-28T13:03:46+02:00</time>
      </trkpt>
      <trkpt lat="45.81472" lon="5.56115">
        <ele>962</ele>
        <time>2021-06-28T13:03:51+02:00</time>
      </trkpt>
      <trkpt lat="45.8149" lon="5.56106">
        <ele>963</ele>
        <time>2021-06-28T13:03:56+02:00</time>
      </trkpt>
      <trkpt lat="45.8151" lon="5.56093">
        <ele>963</ele>
        <time>2021-06-28T13:04:01+02:00</time>
      </trkpt>
      <trkpt lat="45.8152" lon="5.56079">
        <ele>960</ele>
        <time>2021-06-28T13:04:06+02:00</time>
      </trkpt>
      <trkpt lat="45.8153" lon="5.56073">
        <ele>960</ele>
        <time>2021-06-28T13:04:11+02:00</time>
      </trkpt>
      <trkpt lat="45.81538" lon="5.56072">
        <ele>961</ele>
        <time>2021-06-28T13:04:16+02:00</time>
      </trkpt>
      <trkpt lat="45.81579" lon="5.56069">
        <ele>964</ele>
        <time>2021-06-28T17:02:45+02:00</time>
      </trkpt>
      <trkpt lat="45.81614" lon="5.56064">
        <ele>965</ele>
        <time>2021-06-28T13:04:21+02:00</time>
      </trkpt>
      <trkpt lat="45.81688" lon="5.56046">
        <ele>971</ele>
        <time>2021-06-28T13:04:26+02:00</time>
      </trkpt>
      <trkpt lat="45.81738" lon="5.56037">
        <ele>971</ele>
        <time>2021-06-28T13:04:31+02:00</time>
      </trkpt>
      <trkpt lat="45.8176" lon="5.56033">
        <ele>970</ele>
        <time>2021-06-28T13:04:36+02:00</time>
      </trkpt>
      <trkpt lat="45.81778" lon="5.56029">
        <ele>970</ele>
        <time>2021-06-28T13:04:41+02:00</time>
      </trkpt>
      <trkpt lat="45.81809" lon="5.56021">
        <ele>971</ele>
        <time>2021-06-28T13:04:46+02:00</time>
      </trkpt>
      <trkpt lat="45.81823" lon="5.56014">
        <ele>970</ele>
        <time>2021-06-28T13:04:51+02:00</time>
      </trkpt>
      <trkpt lat="45.81902" lon="5.55976">
        <ele>972</ele>
        <time>2021-06-28T13:04:56+02:00</time>
      </trkpt>
      <trkpt lat="45.81988" lon="5.55929">
        <ele>971</ele>
        <time>2021-06-28T13:05:01+02:00</time>
      </trkpt>
      <trkpt lat="45.82018" lon="5.55919">
        <ele>969</ele>
        <time>2021-06-28T13:05:06+02:00</time>
      </trkpt>
      <trkpt lat="45.82052" lon="5.55885">
        <ele>969</ele>
        <time>2021-06-28T13:05:11+02:00</time>
      </trkpt>
      <trkpt lat="45.82076" lon="5.55866">
        <ele>970</ele>
        <time>2021-06-28T13:05:16+02:00</time>
      </trkpt>
      <trkpt lat="45.82076" lon="5.55867">
        <ele>970</ele>
        <time>2021-06-28T12:49:56+02:00</time>
      </trkpt>
      <trkpt lat="45.82076" lon="5.55867">
        <ele>970</ele>
        <time>2021-06-28T12:49:56+02:00</time>
      </trkpt>
      <trkpt lat="45.82062" lon="5.559">
        <ele>975</ele>
        <time>2021-06-28T16:20:50+02:00</time>
      </trkpt>
      <trkpt lat="45.82057" lon="5.5593">
        <ele>980</ele>
        <time>2021-06-28T16:20:55+02:00</time>
      </trkpt>
      <trkpt lat="45.82055" lon="5.55947">
        <ele>982</ele>
        <time>2021-06-28T16:21:00+02:00</time>
      </trkpt>
      <trkpt lat="45.82059" lon="5.55982">
        <ele>990</ele>
        <time>2021-06-28T16:21:05+02:00</time>
      </trkpt>
      <trkpt lat="45.82065" lon="5.56">
        <ele>996</ele>
        <time>2021-06-28T16:21:10+02:00</time>
      </trkpt>
      <trkpt lat="45.82077" lon="5.5604">
        <ele>1003</ele>
        <time>2021-06-28T12:50:01+02:00</time>
      </trkpt>
      <trkpt lat="45.82096" lon="5.56099">
        <ele>1014</ele>
        <time>2021-06-28T12:50:06+02:00</time>
      </trkpt>
      <trkpt lat="45.82107" lon="5.56129">
        <ele>1018</ele>
        <time>2021-06-28T12:50:11+02:00</time>
      </trkpt>
      <trkpt lat="45.82118" lon="5.56158">
        <ele>1025</ele>
        <time>2021-06-28T12:50:16+02:00</time>
      </trkpt>
      <trkpt lat="45.82124" lon="5.5618">
        <ele>1029</ele>
        <time>2021-06-28T12:50:21+02:00</time>
      </trkpt>
      <trkpt lat="45.82128" lon="5.56222">
        <ele>1033</ele>
        <time>2021-06-28T12:50:26+02:00</time>
      </trkpt>
      <trkpt lat="45.82127" lon="5.56246">
        <ele>1035</ele>
        <time>2021-06-28T12:50:31+02:00</time>
      </trkpt>
      <trkpt lat="45.82123" lon="5.5628">
        <ele>1039</ele>
        <time>2021-06-28T12:50:36+02:00</time>
      </trkpt>
      <trkpt lat="45.82118" lon="5.56331">
        <ele>1042</ele>
        <time>2021-06-28T12:50:41+02:00</time>
      </trkpt>
      <trkpt lat="45.8211" lon="5.5639">
        <ele>1044</ele>
        <time>2021-06-28T12:50:46+02:00</time>
      </trkpt>
      <trkpt lat="45.82104" lon="5.56436">
        <ele>1052</ele>
        <time>2021-06-28T12:50:51+02:00</time>
      </trkpt>
      <trkpt lat="45.82096" lon="5.56462">
        <ele>1054</ele>
        <time>2021-06-28T12:50:56+02:00</time>
      </trkpt>
      <trkpt lat="45.82076" lon="5.5651">
        <ele>1058</ele>
        <time>2021-06-28T12:51:01+02:00</time>
      </trkpt>
      <trkpt lat="45.82036" lon="5.56578">
        <ele>1063</ele>
        <time>2021-06-28T12:51:06+02:00</time>
      </trkpt>
      <trkpt lat="45.82059" lon="5.56595">
        <ele>1064</ele>
        <time>2021-06-28T12:51:11+02:00</time>
      </trkpt>
      <trkpt lat="45.82018" lon="5.56651">
        <ele>1065</ele>
        <time>2021-06-28T12:51:16+02:00</time>
      </trkpt>
      <trkpt lat="45.82009" lon="5.56655">
        <ele>1064</ele>
        <time>2021-06-28T12:51:21+02:00</time>
      </trkpt>
      <trkpt lat="45.82001" lon="5.56656">
        <ele>1063</ele>
        <time>2021-06-28T12:51:26+02:00</time>
      </trkpt>
      <trkpt lat="45.81979" lon="5.56643">
        <ele>1066</ele>
        <time>2021-06-28T12:51:31+02:00</time>
      </trkpt>
      <trkpt lat="45.81968" lon="5.56628">
        <ele>1071</ele>
        <time>2021-06-28T12:51:36+02:00</time>
      </trkpt>
      <trkpt lat="45.81959" lon="5.56626">
        <ele>1075</ele>
        <time>2021-06-28T12:51:41+02:00</time>
      </trkpt>
      <trkpt lat="45.81955" lon="5.56617">
        <ele>1079</ele>
        <time>2021-06-28T12:51:46+02:00</time>
      </trkpt>
      <trkpt lat="45.81964" lon="5.56491">
        <ele>1093</ele>
        <time>2021-06-28T12:51:51+02:00</time>
      </trkpt>
      <trkpt lat="45.81974" lon="5.56418">
        <ele>1094</ele>
        <time>2021-06-28T12:51:56+02:00</time>
      </trkpt>
      <trkpt lat="45.81967" lon="5.56396">
        <ele>1097</ele>
        <time>2021-06-28T12:52:01+02:00</time>
      </trkpt>
      <trkpt lat="45.81947" lon="5.56392">
        <ele>1102</ele>
        <time>2021-06-28T12:52:06+02:00</time>
      </trkpt>
      <trkpt lat="45.81898" lon="5.56437">
        <ele>1113</ele>
        <time>2021-06-28T12:52:11+02:00</time>
      </trkpt>
      <trkpt lat="45.81864" lon="5.56456">
        <ele>1115</ele>
        <time>2021-06-28T12:52:16+02:00</time>
      </trkpt>
      <trkpt lat="45.81837" lon="5.56465">
        <ele>1115</ele>
        <time>2021-06-28T12:52:21+02:00</time>
      </trkpt>
      <trkpt lat="45.81796" lon="5.56525">
        <ele>1119</ele>
        <time>2021-06-28T12:52:26+02:00</time>
      </trkpt>
      <trkpt lat="45.81768" lon="5.56604">
        <ele>1124</ele>
        <time>2021-06-28T12:52:31+02:00</time>
      </trkpt>
      <trkpt lat="45.81732" lon="5.56652">
        <ele>1128</ele>
        <time>2021-06-28T12:52:36+02:00</time>
      </trkpt>
      <trkpt lat="45.81692" lon="5.56691">
        <ele>1133</ele>
        <time>2021-06-28T12:52:41+02:00</time>
      </trkpt>
      <trkpt lat="45.8168" lon="5.56701">
        <ele>1136</ele>
        <time>2021-06-28T12:52:46+02:00</time>
      </trkpt>
      <trkpt lat="45.81672" lon="5.56712">
        <ele>1138</ele>
        <time>2021-06-28T12:52:51+02:00</time>
      </trkpt>
      <trkpt lat="45.81642" lon="5.56746">
        <ele>1145</ele>
        <time>2021-06-28T12:52:56+02:00</time>
      </trkpt>
      <trkpt lat="45.81619" lon="5.56763">
        <ele>1150</ele>
        <time>2021-06-28T12:53:01+02:00</time>
      </trkpt>
      <trkpt lat="45.81591" lon="5.56776">
        <ele>1156</ele>
        <time>2021-06-28T12:53:06+02:00</time>
      </trkpt>
      <trkpt lat="45.81562" lon="5.56784">
        <ele>1158</ele>
        <time>2021-06-28T12:53:11+02:00</time>
      </trkpt>
      <trkpt lat="45.81572" lon="5.56858">
        <ele>1156</ele>
        <time>2021-06-28T16:24:30+02:00</time>
      </trkpt>
      <trkpt lat="45.81572" lon="5.56885">
        <ele>1155</ele>
        <time>2021-06-28T12:53:16+02:00</time>
      </trkpt>
      <trkpt lat="45.81578" lon="5.56958">
        <ele>1157</ele>
        <time>2021-06-28T12:53:21+02:00</time>
      </trkpt>
      <trkpt lat="45.81569" lon="5.57053">
        <ele>1155</ele>
        <time>2021-06-28T12:53:26+02:00</time>
      </trkpt>
      <trkpt lat="45.81563" lon="5.57061">
        <ele>1154</ele>
        <time>2021-06-28T16:24:50+02:00</time>
      </trkpt>
      <trkpt lat="45.81557" lon="5.57068">
        <ele>1153</ele>
        <time>2021-06-28T12:53:31+02:00</time>
      </trkpt>
      <trkpt lat="45.81548" lon="5.57085">
        <ele>1149</ele>
        <time>2021-06-28T12:53:36+02:00</time>
      </trkpt>
      <trkpt lat="45.81538" lon="5.57119">
        <ele>1147</ele>
        <time>2021-06-28T12:53:41+02:00</time>
      </trkpt>
      <trkpt lat="45.81527" lon="5.57168">
        <ele>1148</ele>
        <time>2021-06-28T16:25:10+02:00</time>
      </trkpt>
      <trkpt lat="45.81519" lon="5.57191">
        <ele>1145</ele>
        <time>2021-06-28T12:53:46+02:00</time>
      </trkpt>
      <trkpt lat="45.81503" lon="5.57242">
        <ele>1145</ele>
        <time>2021-06-28T12:53:51+02:00</time>
      </trkpt>
      <trkpt lat="45.81488" lon="5.5726">
        <ele>1144</ele>
        <time>2021-06-28T12:53:56+02:00</time>
      </trkpt>
      <trkpt lat="45.8148" lon="5.57261">
        <ele>1143</ele>
        <time>2021-06-28T12:54:01+02:00</time>
      </trkpt>
      <trkpt lat="45.81472" lon="5.57268">
        <ele>1143</ele>
        <time>2021-06-28T12:54:06+02:00</time>
      </trkpt>
      <trkpt lat="45.81454" lon="5.57298">
        <ele>1143</ele>
        <time>2021-06-28T12:54:11+02:00</time>
      </trkpt>
      <trkpt lat="45.81437" lon="5.57336">
        <ele>1142</ele>
        <time>2021-06-28T12:54:16+02:00</time>
      </trkpt>
      <trkpt lat="45.81421" lon="5.57362">
        <ele>1143</ele>
        <time>2021-06-28T12:54:21+02:00</time>
      </trkpt>
      <trkpt lat="45.81412" lon="5.5738">
        <ele>1145</ele>
        <time>2021-06-28T16:25:55+02:00</time>
      </trkpt>
      <trkpt lat="45.81408" lon="5.57402">
        <ele>1146</ele>
        <time>2021-06-28T12:54:26+02:00</time>
      </trkpt>
      <trkpt lat="45.81393" lon="5.5745">
        <ele>1148</ele>
        <time>2021-06-28T12:54:31+02:00</time>
      </trkpt>
      <trkpt lat="45.81352" lon="5.5746">
        <ele>1153</ele>
        <time>2021-06-28T12:54:36+02:00</time>
      </trkpt>
      <trkpt lat="45.81307" lon="5.5751">
        <ele>1160</ele>
        <time>2021-06-28T16:26:15+02:00</time>
      </trkpt>
      <trkpt lat="45.81263" lon="5.5756">
        <ele>1168</ele>
        <time>2021-06-28T12:54:41+02:00</time>
      </trkpt>
      <trkpt lat="45.81212" lon="5.5764">
        <ele>1173</ele>
        <time>2021-06-28T12:54:46+02:00</time>
      </trkpt>
      <trkpt lat="45.81201" lon="5.57675">
        <ele>1176</ele>
        <time>2021-06-28T16:26:30+02:00</time>
      </trkpt>
      <trkpt lat="45.81191" lon="5.57714">
        <ele>1180</ele>
        <time>2021-06-28T12:54:51+02:00</time>
      </trkpt>
      <trkpt lat="45.81179" lon="5.57743">
        <ele>1182</ele>
        <time>2021-06-28T12:54:56+02:00</time>
      </trkpt>
      <trkpt lat="45.81169" lon="5.57757">
        <ele>1184</ele>
        <time>2021-06-28T12:55:01+02:00</time>
      </trkpt>
      <trkpt lat="45.8115" lon="5.57777">
        <ele>1186</ele>
        <time>2021-06-28T12:55:06+02:00</time>
      </trkpt>
      <trkpt lat="45.81136" lon="5.57801">
        <ele>1190</ele>
        <time>2021-06-28T12:55:11+02:00</time>
      </trkpt>
      <trkpt lat="45.8112" lon="5.57825">
        <ele>1193</ele>
        <time>2021-06-28T12:55:16+02:00</time>
      </trkpt>
      <trkpt lat="45.81077" lon="5.57842">
        <ele>1196</ele>
        <time>2021-06-28T12:55:21+02:00</time>
      </trkpt>
      <trkpt lat="45.81048" lon="5.57853">
        <ele>1195</ele>
        <time>2021-06-28T12:55:26+02:00</time>
      </trkpt>
      <trkpt lat="45.8104" lon="5.57862">
        <ele>1195</ele>
        <time>2021-06-28T12:55:31+02:00</time>
      </trkpt>
      <trkpt lat="45.81041" lon="5.5788">
        <ele>1201</ele>
        <time>2021-06-28T12:55:36+02:00</time>
      </trkpt>
      <trkpt lat="45.81042" lon="5.57894">
        <ele>1205</ele>
        <time>2021-06-28T12:55:41+02:00</time>
      </trkpt>
      <trkpt lat="45.81039" lon="5.57918">
        <ele>1209</ele>
        <time>2021-06-28T12:55:46+02:00</time>
      </trkpt>
      <trkpt lat="45.81034" lon="5.57936">
        <ele>1210</ele>
        <time>2021-06-28T12:55:51+02:00</time>
      </trkpt>
      <trkpt lat="45.81027" lon="5.57957">
        <ele>1210</ele>
        <time>2021-06-28T12:55:56+02:00</time>
      </trkpt>
      <trkpt lat="45.81021" lon="5.57976">
        <ele>1210</ele>
        <time>2021-06-28T12:56:01+02:00</time>
      </trkpt>
      <trkpt lat="45.81013" lon="5.57994">
        <ele>1210</ele>
        <time>2021-06-28T12:56:06+02:00</time>
      </trkpt>
      <trkpt lat="45.81005" lon="5.57998">
        <ele>1210</ele>
        <time>2021-06-28T12:56:11+02:00</time>
      </trkpt>
      <trkpt lat="45.80995" lon="5.57988">
        <ele>1209</ele>
        <time>2021-06-28T12:56:16+02:00</time>
      </trkpt>
      <trkpt lat="45.80984" lon="5.57971">
        <ele>1206</ele>
        <time>2021-06-28T16:28:05+02:00</time>
      </trkpt>
      <trkpt lat="45.80979" lon="5.5796">
        <ele>1202</ele>
        <time>2021-06-28T12:56:21+02:00</time>
      </trkpt>
      <trkpt lat="45.80971" lon="5.5795">
        <ele>1197</ele>
        <time>2021-06-28T12:56:26+02:00</time>
      </trkpt>
      <trkpt lat="45.80964" lon="5.57945">
        <ele>1192</ele>
        <time>2021-06-28T16:28:20+02:00</time>
      </trkpt>
      <trkpt lat="45.8096" lon="5.57937">
        <ele>1188</ele>
        <time>2021-06-28T12:56:31+02:00</time>
      </trkpt>
      <trkpt lat="45.80954" lon="5.57908">
        <ele>1179</ele>
        <time>2021-06-28T12:56:36+02:00</time>
      </trkpt>
      <trkpt lat="45.80943" lon="5.57883">
        <ele>1167</ele>
        <time>2021-06-28T12:56:41+02:00</time>
      </trkpt>
      <trkpt lat="45.80921" lon="5.57862">
        <ele>1155</ele>
        <time>2021-06-28T12:56:46+02:00</time>
      </trkpt>
      <trkpt lat="45.80914" lon="5.57831">
        <ele>1146</ele>
        <time>2021-06-28T12:56:51+02:00</time>
      </trkpt>
      <trkpt lat="45.80868" lon="5.57776">
        <ele>1127</ele>
        <time>2021-06-28T12:56:56+02:00</time>
      </trkpt>
      <trkpt lat="45.80855" lon="5.57747">
        <ele>1122</ele>
        <time>2021-06-28T12:57:01+02:00</time>
      </trkpt>
      <trkpt lat="45.8084" lon="5.57718">
        <ele>1117</ele>
        <time>2021-06-28T12:57:06+02:00</time>
      </trkpt>
      <trkpt lat="45.80825" lon="5.57695">
        <ele>1112</ele>
        <time>2021-06-28T12:57:11+02:00</time>
      </trkpt>
      <trkpt lat="45.80816" lon="5.57674">
        <ele>1109</ele>
        <time>2021-06-28T12:57:16+02:00</time>
      </trkpt>
      <trkpt lat="45.80819" lon="5.57666">
        <ele>1108</ele>
        <time>2021-06-28T12:57:21+02:00</time>
      </trkpt>
      <trkpt lat="45.80818" lon="5.57659">
        <ele>1108</ele>
        <time>2021-06-28T12:57:26+02:00</time>
      </trkpt>
      <trkpt lat="45.80815" lon="5.57646">
        <ele>1107</ele>
        <time>2021-06-28T16:29:25+02:00</time>
      </trkpt>
      <trkpt lat="45.80808" lon="5.57635">
        <ele>1107</ele>
        <time>2021-06-28T16:29:30+02:00</time>
      </trkpt>
      <trkpt lat="45.80802" lon="5.5762">
        <ele>1106</ele>
        <time>2021-06-28T12:57:31+02:00</time>
      </trkpt>
      <trkpt lat="45.80797" lon="5.57598">
        <ele>1105</ele>
        <time>2021-06-28T16:29:40+02:00</time>
      </trkpt>
      <trkpt lat="45.80795" lon="5.57575">
        <ele>1104</ele>
        <time>2021-06-28T12:57:36+02:00</time>
      </trkpt>
      <trkpt lat="45.80791" lon="5.57549">
        <ele>1103</ele>
        <time>2021-06-28T16:29:50+02:00</time>
      </trkpt>
      <trkpt lat="45.80792" lon="5.57533">
        <ele>1103</ele>
        <time>2021-06-28T12:57:41+02:00</time>
      </trkpt>
      <trkpt lat="45.80791" lon="5.57516">
        <ele>1102</ele>
        <time>2021-06-28T12:57:46+02:00</time>
      </trkpt>
      <trkpt lat="45.80788" lon="5.57494">
        <ele>1101</ele>
        <time>2021-06-28T12:57:51+02:00</time>
      </trkpt>
      <trkpt lat="45.80786" lon="5.57483">
        <ele>1101</ele>
        <time>2021-06-28T12:57:56+02:00</time>
      </trkpt>
      <trkpt lat="45.8079" lon="5.57466">
        <ele>1100</ele>
        <time>2021-06-28T12:58:01+02:00</time>
      </trkpt>
      <trkpt lat="45.80792" lon="5.57458">
        <ele>1099</ele>
        <time>2021-06-28T16:30:20+02:00</time>
      </trkpt>
      <trkpt lat="45.80795" lon="5.57452">
        <ele>1099</ele>
        <time>2021-06-28T12:58:06+02:00</time>
      </trkpt>
      <trkpt lat="45.80806" lon="5.57438">
        <ele>1099</ele>
        <time>2021-06-28T12:58:11+02:00</time>
      </trkpt>
      <trkpt lat="45.80813" lon="5.5743">
        <ele>1097</ele>
        <time>2021-06-28T16:30:35+02:00</time>
      </trkpt>
      <trkpt lat="45.80816" lon="5.57419">
        <ele>1096</ele>
        <time>2021-06-28T12:58:16+02:00</time>
      </trkpt>
      <trkpt lat="45.80811" lon="5.57409">
        <ele>1096</ele>
        <time>2021-06-28T12:58:21+02:00</time>
      </trkpt>
      <trkpt lat="45.80806" lon="5.57397">
        <ele>1095</ele>
        <time>2021-06-28T12:58:26+02:00</time>
      </trkpt>
      <trkpt lat="45.80803" lon="5.57379">
        <ele>1093</ele>
        <time>2021-06-28T12:58:31+02:00</time>
      </trkpt>
      <trkpt lat="45.80803" lon="5.5737">
        <ele>1092</ele>
        <time>2021-06-28T12:58:36+02:00</time>
      </trkpt>
      <trkpt lat="45.80803" lon="5.57358">
        <ele>1091</ele>
        <time>2021-06-28T12:58:41+02:00</time>
      </trkpt>
      <trkpt lat="45.80805" lon="5.57339">
        <ele>1090</ele>
        <time>2021-06-28T16:31:10+02:00</time>
      </trkpt>
      <trkpt lat="45.80809" lon="5.57326">
        <ele>1090</ele>
        <time>2021-06-28T16:31:15+02:00</time>
      </trkpt>
      <trkpt lat="45.80811" lon="5.57314">
        <ele>1090</ele>
        <time>2021-06-28T16:31:20+02:00</time>
      </trkpt>
      <trkpt lat="45.80811" lon="5.57304">
        <ele>1090</ele>
        <time>2021-06-28T16:31:25+02:00</time>
      </trkpt>
      <trkpt lat="45.80803" lon="5.57303">
        <ele>1090</ele>
        <time>2021-06-28T16:31:30+02:00</time>
      </trkpt>
      <trkpt lat="45.80792" lon="5.57298">
        <ele>1090</ele>
        <time>2021-06-28T16:31:35+02:00</time>
      </trkpt>
      <trkpt lat="45.80749" lon="5.57266">
        <ele>1091</ele>
        <time>2021-06-28T16:31:40+02:00</time>
      </trkpt>
      <trkpt lat="45.80729" lon="5.5725">
        <ele>1092</ele>
        <time>2021-06-28T16:31:45+02:00</time>
      </trkpt>
      <trkpt lat="45.80715" lon="5.57239">
        <ele>1093</ele>
        <time>2021-06-28T16:31:50+02:00</time>
      </trkpt>
      <trkpt lat="45.80696" lon="5.57223">
        <ele>1094</ele>
        <time>2021-06-28T16:31:55+02:00</time>
      </trkpt>
      <trkpt lat="45.80677" lon="5.5721">
        <ele>1094</ele>
        <time>2021-06-28T16:32:00+02:00</time>
      </trkpt>
      <trkpt lat="45.80654" lon="5.57198">
        <ele>1094</ele>
        <time>2021-06-28T16:32:05+02:00</time>
      </trkpt>
      <trkpt lat="45.80618" lon="5.57183">
        <ele>1095</ele>
        <time>2021-06-28T16:32:10+02:00</time>
      </trkpt>
      <trkpt lat="45.8059" lon="5.57178">
        <ele>1095</ele>
        <time>2021-06-28T16:32:15+02:00</time>
      </trkpt>
      <trkpt lat="45.80578" lon="5.57176">
        <ele>1097</ele>
        <time>2021-06-28T16:32:20+02:00</time>
      </trkpt>
      <trkpt lat="45.80558" lon="5.57181">
        <ele>1098</ele>
        <time>2021-06-28T16:32:25+02:00</time>
      </trkpt>
      <trkpt lat="45.80527" lon="5.57205">
        <ele>1096</ele>
        <time>2021-06-28T16:32:30+02:00</time>
      </trkpt>
      <trkpt lat="45.80491" lon="5.57208">
        <ele>1097</ele>
        <time>2021-06-28T16:32:35+02:00</time>
      </trkpt>
      <trkpt lat="45.80463" lon="5.57206">
        <ele>1097</ele>
        <time>2021-06-28T16:32:40+02:00</time>
      </trkpt>
      <trkpt lat="45.80452" lon="5.57191">
        <ele>1097</ele>
        <time>2021-06-28T16:32:45+02:00</time>
      </trkpt>
      <trkpt lat="45.80443" lon="5.57175">
        <ele>1097</ele>
        <time>2021-06-28T16:32:50+02:00</time>
      </trkpt>
      <trkpt lat="45.80435" lon="5.57154">
        <ele>1096</ele>
        <time>2021-06-28T16:32:55+02:00</time>
      </trkpt>
      <trkpt lat="45.80425" lon="5.57138">
        <ele>1095</ele>
        <time>2021-06-28T16:33:00+02:00</time>
      </trkpt>
      <trkpt lat="45.80412" lon="5.57123">
        <ele>1093</ele>
        <time>2021-06-28T16:33:05+02:00</time>
      </trkpt>
      <trkpt lat="45.8039" lon="5.57107">
        <ele>1089</ele>
        <time>2021-06-28T16:33:10+02:00</time>
      </trkpt>
      <trkpt lat="45.80358" lon="5.57082">
        <ele>1085</ele>
        <time>2021-06-28T16:33:15+02:00</time>
      </trkpt>
      <trkpt lat="45.80322" lon="5.57065">
        <ele>1080</ele>
        <time>2021-06-28T16:33:20+02:00</time>
      </trkpt>
      <trkpt lat="45.80306" lon="5.57063">
        <ele>1078</ele>
        <time>2021-06-28T16:33:25+02:00</time>
      </trkpt>
      <trkpt lat="45.80277" lon="5.57065">
        <ele>1076</ele>
        <time>2021-06-28T16:33:30+02:00</time>
      </trkpt>
      <trkpt lat="45.80226" lon="5.5708">
        <ele>1071</ele>
        <time>2021-06-28T16:33:35+02:00</time>
      </trkpt>
      <trkpt lat="45.80203" lon="5.57089">
        <ele>1068</ele>
        <time>2021-06-28T16:33:40+02:00</time>
      </trkpt>
      <trkpt lat="45.80183" lon="5.57101">
        <ele>1066</ele>
        <time>2021-06-28T16:33:45+02:00</time>
      </trkpt>
      <trkpt lat="45.80138" lon="5.57127">
        <ele>1062</ele>
        <time>2021-06-28T16:33:50+02:00</time>
      </trkpt>
      <trkpt lat="45.80098" lon="5.57148">
        <ele>1055</ele>
        <time>2021-06-28T16:33:55+02:00</time>
      </trkpt>
      <trkpt lat="45.80082" lon="5.57156">
        <ele>1053</ele>
        <time>2021-06-28T16:34:00+02:00</time>
      </trkpt>
      <trkpt lat="45.80065" lon="5.57163">
        <ele>1050</ele>
        <time>2021-06-28T16:34:05+02:00</time>
      </trkpt>
      <trkpt lat="45.80049" lon="5.57172">
        <ele>1049</ele>
        <time>2021-06-28T16:34:10+02:00</time>
      </trkpt>
      <trkpt lat="45.80031" lon="5.57181">
        <ele>1047</ele>
        <time>2021-06-28T16:34:15+02:00</time>
      </trkpt>
      <trkpt lat="45.80014" lon="5.57193">
        <ele>1044</ele>
        <time>2021-06-28T16:34:20+02:00</time>
      </trkpt>
      <trkpt lat="45.79991" lon="5.5721">
        <ele>1042</ele>
        <time>2021-06-28T16:34:25+02:00</time>
      </trkpt>
      <trkpt lat="45.79977" lon="5.57219">
        <ele>1040</ele>
        <time>2021-06-28T16:34:30+02:00</time>
      </trkpt>
      <trkpt lat="45.79962" lon="5.57225">
        <ele>1038</ele>
        <time>2021-06-28T16:34:35+02:00</time>
      </trkpt>
      <trkpt lat="45.79945" lon="5.5723">
        <ele>1035</ele>
        <time>2021-06-28T16:34:40+02:00</time>
      </trkpt>
      <trkpt lat="45.79928" lon="5.57232">
        <ele>1033</ele>
        <time>2021-06-28T16:34:45+02:00</time>
      </trkpt>
      <trkpt lat="45.79894" lon="5.57248">
        <ele>1030</ele>
        <time>2021-06-28T16:34:50+02:00</time>
      </trkpt>
      <trkpt lat="45.79853" lon="5.57258">
        <ele>1023</ele>
        <time>2021-06-28T16:34:55+02:00</time>
      </trkpt>
      <trkpt lat="45.79831" lon="5.57271">
        <ele>1020</ele>
        <time>2021-06-28T16:35:00+02:00</time>
      </trkpt>
      <trkpt lat="45.79804" lon="5.57278">
        <ele>1016</ele>
        <time>2021-06-28T16:35:05+02:00</time>
      </trkpt>
      <trkpt lat="45.79785" lon="5.57287">
        <ele>1013</ele>
        <time>2021-06-28T16:35:10+02:00</time>
      </trkpt>
      <trkpt lat="45.79765" lon="5.57306">
        <ele>1013</ele>
        <time>2021-06-28T16:35:15+02:00</time>
      </trkpt>
      <trkpt lat="45.79755" lon="5.5731">
        <ele>1012</ele>
        <time>2021-06-28T16:35:20+02:00</time>
      </trkpt>
      <trkpt lat="45.79728" lon="5.57308">
        <ele>1008</ele>
        <time>2021-06-28T16:35:25+02:00</time>
      </trkpt>
      <trkpt lat="45.79671" lon="5.57307">
        <ele>1002</ele>
        <time>2021-06-28T16:35:30+02:00</time>
      </trkpt>
      <trkpt lat="45.79622" lon="5.5731">
        <ele>997</ele>
        <time>2021-06-28T16:35:35+02:00</time>
      </trkpt>
      <trkpt lat="45.79581" lon="5.57322">
        <ele>989</ele>
        <time>2021-06-28T16:35:40+02:00</time>
      </trkpt>
      <trkpt lat="45.79569" lon="5.57326">
        <ele>986</ele>
        <time>2021-06-28T16:35:45+02:00</time>
      </trkpt>
      <trkpt lat="45.7956" lon="5.57333">
        <ele>984</ele>
        <time>2021-06-28T16:35:50+02:00</time>
      </trkpt>
      <trkpt lat="45.7955" lon="5.57341">
        <ele>982</ele>
        <time>2021-06-28T16:35:55+02:00</time>
      </trkpt>
      <trkpt lat="45.79544" lon="5.5735">
        <ele>981</ele>
        <time>2021-06-28T16:36:00+02:00</time>
      </trkpt>
      <trkpt lat="45.7953" lon="5.57381">
        <ele>978</ele>
        <time>2021-06-28T16:36:05+02:00</time>
      </trkpt>
      <trkpt lat="45.79518" lon="5.57399">
        <ele>976</ele>
        <time>2021-06-28T16:36:10+02:00</time>
      </trkpt>
      <trkpt lat="45.79504" lon="5.57413">
        <ele>974</ele>
        <time>2021-06-28T16:36:15+02:00</time>
      </trkpt>
      <trkpt lat="45.79478" lon="5.57438">
        <ele>972</ele>
        <time>2021-06-28T16:36:20+02:00</time>
      </trkpt>
      <trkpt lat="45.79465" lon="5.57454">
        <ele>972</ele>
        <time>2021-06-28T16:36:25+02:00</time>
      </trkpt>
      <trkpt lat="45.79459" lon="5.57458">
        <ele>971</ele>
        <time>2021-06-28T16:36:30+02:00</time>
      </trkpt>
      <trkpt lat="45.79452" lon="5.57454">
        <ele>970</ele>
        <time>2021-06-28T16:36:35+02:00</time>
      </trkpt>
      <trkpt lat="45.79449" lon="5.57445">
        <ele>969</ele>
        <time>2021-06-28T16:36:40+02:00</time>
      </trkpt>
      <trkpt lat="45.79451" lon="5.57431">
        <ele>967</ele>
        <time>2021-06-28T16:36:45+02:00</time>
      </trkpt>
      <trkpt lat="45.79463" lon="5.57314">
        <ele>959</ele>
        <time>2021-06-28T16:36:50+02:00</time>
      </trkpt>
      <trkpt lat="45.79469" lon="5.57267">
        <ele>955</ele>
        <time>2021-06-28T16:36:55+02:00</time>
      </trkpt>
      <trkpt lat="45.79476" lon="5.57231">
        <ele>952</ele>
        <time>2021-06-28T16:37:00+02:00</time>
      </trkpt>
      <trkpt lat="45.79486" lon="5.57193">
        <ele>949</ele>
        <time>2021-06-28T16:37:05+02:00</time>
      </trkpt>
      <trkpt lat="45.79496" lon="5.57157">
        <ele>946</ele>
        <time>2021-06-28T16:37:10+02:00</time>
      </trkpt>
      <trkpt lat="45.79493" lon="5.57139">
        <ele>944</ele>
        <time>2021-06-28T16:37:15+02:00</time>
      </trkpt>
      <trkpt lat="45.79481" lon="5.57129">
        <ele>941</ele>
        <time>2021-06-28T16:37:20+02:00</time>
      </trkpt>
      <trkpt lat="45.79468" lon="5.57114">
        <ele>939</ele>
        <time>2021-06-28T16:37:25+02:00</time>
      </trkpt>
      <trkpt lat="45.79461" lon="5.57104">
        <ele>938</ele>
        <time>2021-06-28T16:37:30+02:00</time>
      </trkpt>
      <trkpt lat="45.79448" lon="5.57076">
        <ele>936</ele>
        <time>2021-06-28T16:37:35+02:00</time>
      </trkpt>
      <trkpt lat="45.79429" lon="5.57034">
        <ele>933</ele>
        <time>2021-06-28T16:37:40+02:00</time>
      </trkpt>
      <trkpt lat="45.79421" lon="5.5702">
        <ele>932</ele>
        <time>2021-06-28T16:37:45+02:00</time>
      </trkpt>
      <trkpt lat="45.79407" lon="5.57006">
        <ele>931</ele>
        <time>2021-06-28T16:37:50+02:00</time>
      </trkpt>
      <trkpt lat="45.79401" lon="5.56999">
        <ele>931</ele>
        <time>2021-06-28T16:37:55+02:00</time>
      </trkpt>
      <trkpt lat="45.79401" lon="5.56991">
        <ele>931</ele>
        <time>2021-06-28T16:38:00+02:00</time>
      </trkpt>
      <trkpt lat="45.79388" lon="5.56997">
        <ele>931</ele>
        <time>2021-06-28T16:38:05+02:00</time>
      </trkpt>
      <trkpt lat="45.79361" lon="5.57029">
        <ele>930</ele>
        <time>2021-06-28T16:38:10+02:00</time>
      </trkpt>
      <trkpt lat="45.79299" lon="5.57098">
        <ele>930</ele>
        <time>2021-06-28T16:38:15+02:00</time>
      </trkpt>
      <trkpt lat="45.79247" lon="5.57142">
        <ele>930</ele>
        <time>2021-06-28T16:38:20+02:00</time>
      </trkpt>
      <trkpt lat="45.79228" lon="5.57156">
        <ele>933</ele>
        <time>2021-06-28T16:38:25+02:00</time>
      </trkpt>
      <trkpt lat="45.79206" lon="5.57164">
        <ele>935</ele>
        <time>2021-06-28T16:38:30+02:00</time>
      </trkpt>
      <trkpt lat="45.79173" lon="5.57174">
        <ele>937</ele>
        <time>2021-06-28T16:38:35+02:00</time>
      </trkpt>
      <trkpt lat="45.7915" lon="5.57175">
        <ele>938</ele>
        <time>2021-06-28T16:38:40+02:00</time>
      </trkpt>
      <trkpt lat="45.79119" lon="5.57175">
        <ele>939</ele>
        <time>2021-06-28T16:38:45+02:00</time>
      </trkpt>
      <trkpt lat="45.79086" lon="5.57177">
        <ele>941</ele>
        <time>2021-06-28T16:38:50+02:00</time>
      </trkpt>
      <trkpt lat="45.79065" lon="5.57178">
        <ele>945</ele>
        <time>2021-06-28T16:38:55+02:00</time>
      </trkpt>
      <trkpt lat="45.79034" lon="5.57173">
        <ele>947</ele>
        <time>2021-06-28T16:39:00+02:00</time>
      </trkpt>
      <trkpt lat="45.7902" lon="5.57161">
        <ele>946</ele>
        <time>2021-06-28T16:39:05+02:00</time>
      </trkpt>
      <trkpt lat="45.79004" lon="5.57155">
        <ele>945</ele>
        <time>2021-06-28T16:39:10+02:00</time>
      </trkpt>
      <trkpt lat="45.78953" lon="5.5715">
        <ele>942</ele>
        <time>2021-06-28T16:39:15+02:00</time>
      </trkpt>
      <trkpt lat="45.7886" lon="5.57139">
        <ele>936</ele>
        <time>2021-06-28T16:39:20+02:00</time>
      </trkpt>
      <trkpt lat="45.78836" lon="5.57125">
        <ele>934</ele>
        <time>2021-06-28T16:39:25+02:00</time>
      </trkpt>
      <trkpt lat="45.78792" lon="5.57096">
        <ele>928</ele>
        <time>2021-06-28T16:39:30+02:00</time>
      </trkpt>
      <trkpt lat="45.78749" lon="5.57064">
        <ele>920</ele>
        <time>2021-06-28T16:39:35+02:00</time>
      </trkpt>
      <trkpt lat="45.7872" lon="5.57046">
        <ele>916</ele>
        <time>2021-06-28T16:39:40+02:00</time>
      </trkpt>
      <trkpt lat="45.78692" lon="5.57018">
        <ele>914</ele>
        <time>2021-06-28T16:39:45+02:00</time>
      </trkpt>
      <trkpt lat="45.78661" lon="5.56994">
        <ele>912</ele>
        <time>2021-06-28T16:39:50+02:00</time>
      </trkpt>
      <trkpt lat="45.78634" lon="5.56985">
        <ele>910</ele>
        <time>2021-06-28T16:39:55+02:00</time>
      </trkpt>
      <trkpt lat="45.7862" lon="5.56987">
        <ele>909</ele>
        <time>2021-06-28T16:40:00+02:00</time>
      </trkpt>
      <trkpt lat="45.7861" lon="5.56991">
        <ele>909</ele>
        <time>2021-06-28T16:40:05+02:00</time>
      </trkpt>
      <trkpt lat="45.78578" lon="5.57021">
        <ele>903</ele>
        <time>2021-06-28T16:40:10+02:00</time>
      </trkpt>
      <trkpt lat="45.78565" lon="5.57024">
        <ele>901</ele>
        <time>2021-06-28T16:40:15+02:00</time>
      </trkpt>
      <trkpt lat="45.78543" lon="5.57016">
        <ele>897</ele>
        <time>2021-06-28T16:40:20+02:00</time>
      </trkpt>
      <trkpt lat="45.78521" lon="5.5702">
        <ele>894</ele>
        <time>2021-06-28T16:40:25+02:00</time>
      </trkpt>
      <trkpt lat="45.78504" lon="5.57041">
        <ele>892</ele>
        <time>2021-06-28T16:40:30+02:00</time>
      </trkpt>
      <trkpt lat="45.7849" lon="5.57077">
        <ele>891</ele>
        <time>2021-06-28T16:40:35+02:00</time>
      </trkpt>
      <trkpt lat="45.78458" lon="5.57089">
        <ele>889</ele>
        <time>2021-06-28T16:40:40+02:00</time>
      </trkpt>
      <trkpt lat="45.78411" lon="5.57103">
        <ele>885</ele>
        <time>2021-06-28T16:40:45+02:00</time>
      </trkpt>
      <trkpt lat="45.78383" lon="5.57122">
        <ele>883</ele>
        <time>2021-06-28T16:40:50+02:00</time>
      </trkpt>
      <trkpt lat="45.78363" lon="5.5713">
        <ele>880</ele>
        <time>2021-06-28T16:40:55+02:00</time>
      </trkpt>
      <trkpt lat="45.7834" lon="5.57142">
        <ele>877</ele>
        <time>2021-06-28T16:41:00+02:00</time>
      </trkpt>
      <trkpt lat="45.78337" lon="5.57156">
        <ele>876</ele>
        <time>2021-06-28T16:41:05+02:00</time>
      </trkpt>
      <trkpt lat="45.78329" lon="5.57169">
        <ele>876</ele>
        <time>2021-06-28T16:41:10+02:00</time>
      </trkpt>
      <trkpt lat="45.78291" lon="5.5721">
        <ele>879</ele>
        <time>2021-06-28T16:41:15+02:00</time>
      </trkpt>
      <trkpt lat="45.78247" lon="5.57229">
        <ele>880</ele>
        <time>2021-06-28T16:41:20+02:00</time>
      </trkpt>
      <trkpt lat="45.78243" lon="5.57226">
        <ele>880</ele>
        <time>2021-06-28T16:41:25+02:00</time>
      </trkpt>
      <trkpt lat="45.78237" lon="5.5722">
        <ele>880</ele>
        <time>2021-06-28T16:41:30+02:00</time>
      </trkpt>
      <trkpt lat="45.78202" lon="5.57228">
        <ele>881</ele>
        <time>2021-06-28T16:41:35+02:00</time>
      </trkpt>
      <trkpt lat="45.78159" lon="5.57238">
        <ele>883</ele>
        <time>2021-06-28T16:41:40+02:00</time>
      </trkpt>
      <trkpt lat="45.781" lon="5.57248">
        <ele>889</ele>
        <time>2021-06-28T16:41:45+02:00</time>
      </trkpt>
      <trkpt lat="45.781" lon="5.57248">
        <ele>889</ele>
        <time>2021-06-28T16:41:45+02:00</time>
      </trkpt>
    </trkseg>
  </trk>
</gpx>